Descanso, CA (91916)

10:44 AM PDT on August 29, 2015 (GMT -0700)
Burrell Valley | | Change Station
CLOSE
Current Station
Personal Weather Station
Location: Descanso, CA
Elevation: 3576 ft
Nearby Weather Stations

Elev 3576 ft 32.88 °N, 116.63 °W | Updated 3 seconds ago

Clear
Clear
87.3 °F
Feels Like 84 °F
N
4.0
Wind Variable Wind from West
Gusts 7.0 mph

Today
High -- | Low -- °F
--% Chance of Precip.
Yesterday
High -- | Low -- °F
Precip. -- in
6:19 AM 7:15 PM
Full, 100% visible
Pressure 29.86 in
Visibility -9999.0 miles
Clouds
Heat Index 84 °F
Dew Point 45 °F
Humidity 23%
Rainfall 0.00 in
Snow Depth Not available.
UV 7.1 out of 12
Pollen 5.50 out of 12
Air Quality Not available.
Flu Activity Not available.
METAR KCZZ 291652Z AUTO 21009KT 32/08 A2998 RMK AO1 SLP109 T03220078
Pressure 29.86 in
Visibility -9999.0 miles
Clouds
Heat Index 84 °F
Dew Point 45 °F
Humidity 23%
Rainfall 0.00 in
Snow Depth Not available.
UV 7.1 out of 12
Pollen 5.50 out of 12
Air Quality Not available.
Flu Activity Not available.
METAR KCZZ 291652Z AUTO 21009KT 32/08 A2998 RMK AO1 SLP109 T03220078

10-Day Weather Forecast

×

Almanac

Astronomy

Aug. 29, 2015 Rise Set
Actual Time
Civil Twilight
Nautical Twilight
Astronomical Twilight
Moon
Length of Visible Light
Length of Day
Tomorrow will be .
, % of the Moon is Illuminated

Today's Extremes

State Highs State Lows

Community

WunderPhotos

Upload Photos

1,850,743 photos uploaded!

WunderBlogs® & News

Nearby

Air Quality

  Air Quality AQ Index Pollutant
Not available.

Snow Depth

Station Depth Elevation

Earthquake Activity

City Distance Mag. Time & Date
Minimum magnitude displayed is 2.5.

Coastal Water Temperatures

Place Temperature

Stations

Nearby Weather Stations

Station Location Temp. Windchill Dew Point Humidity Wind Precip. Elev Updated Type